Time;durP1;ratioP1;P1;durP2;ratioP2;P2;SDS_P1;SDS_P2;PMS_P1;PMS_P2;Temp;Humidity;BMP_temperature;BMP_pressure;BME280_temperature;BME280_humidity;BME280_pressure;Samples;Min_cycle;Max_cycle;Signal;HPM_P1;HPM_P2
2022/12/24 00:03:13;;;;;;;15.23;2.95;;;;;;;10.23;58.46;99113.94;10382862;28;20565;-62
2022/12/24 00:08:15;;;;;;;16.65;3.08;;;;;;;10.29;58.60;99130.94;10377116;28;20501;-62
2022/12/24 00:13:18;;;;;;;14.35;3.15;;;;;;;10.20;58.73;99124.59;10378717;28;20052;-62
2022/12/24 00:18:19;;;;;;;12.65;3.05;;;;;;;10.11;58.85;99135.72;10367665;28;20224;-62
2022/12/24 00:23:21;;;;;;;12.98;3.00;;;;;;;10.09;59.03;99139.38;10381866;28;20049;-63
2022/12/24 00:28:23;;;;;;;16.45;3.60;;;;;;;10.09;58.78;99155.88;10376808;28;20092;-63
2022/12/24 00:33:25;;;;;;;14.18;3.15;;;;;;;10.11;58.67;99163.59;10381050;28;20095;-62
2022/12/24 00:38:26;;;;;;;14.32;2.90;;;;;;;10.18;58.23;99164.84;10376292;28;20041;-62
2022/12/24 00:43:29;;;;;;;10.82;2.75;;;;;;;10.14;58.14;99166.00;10364408;28;20489;-63
2022/12/24 00:48:31;;;;;;;13.95;3.08;;;;;;;10.13;58.09;99170.41;10389707;28;20462;-62
2022/12/24 00:53:32;;;;;;;12.85;2.55;;;;;;;10.02;57.83;99169.47;10386317;28;20053;-61
2022/12/24 00:58:34;;;;;;;16.98;3.10;;;;;;;9.89;58.04;99172.06;10388972;28;20049;-62
2022/12/24 01:03:36;;;;;;;11.85;2.80;;;;;;;9.75;58.30;99177.41;10389861;28;20053;-62
2022/12/24 01:08:38;;;;;;;14.85;2.63;;;;;;;9.70;58.36;99174.28;10388379;28;20463;-62
2022/12/24 01:13:40;;;;;;;14.52;2.90;;;;;;;9.60;58.61;99174.06;10389466;28;20057;-62
2022/12/24 01:18:41;;;;;;;16.13;3.47;;;;;;;9.53;58.46;99180.63;10388991;28;20493;-61
2022/12/24 01:23:44;;;;;;;15.75;3.10;;;;;;;9.58;58.36;99196.78;10389412;28;20049;-61
2022/12/24 01:28:46;;;;;;;14.75;3.03;;;;;;;9.75;58.41;99197.50;10389821;28;20559;-62
2022/12/24 01:33:48;;;;;;;16.85;3.28;;;;;;;9.77;58.49;99198.22;10388143;28;20520;-61
2022/12/24 01:38:50;;;;;;;14.35;2.92;;;;;;;9.75;58.39;99207.94;10385829;28;20493;-61
2022/12/24 01:43:54;;;;;;;15.50;3.03;;;;;;;9.75;58.25;99221.81;10388188;28;20049;-62
2022/12/24 01:48:59;;;;;;;16.85;3.08;;;;;;;9.80;58.49;99224.97;10388406;28;20513;-62
2022/12/24 01:54:06;;;;;;;15.05;3.17;;;;;;;9.68;58.67;99241.44;10386527;28;20048;-62
2022/12/24 01:59:13;;;;;;;17.13;3.30;;;;;;;9.57;59.21;99236.91;10387571;28;20050;-62
2022/12/24 02:04:33;;;;;;;16.38;3.30;;;;;;;9.33;59.93;99241.13;10386850;28;20041;-62
2022/12/24 02:09:35;;;;;;;13.52;3.33;;;;;;;9.34;60.22;99234.16;10386937;28;20071;-62
2022/12/24 02:14:37;;;;;;;16.17;3.20;;;;;;;9.30;60.52;99245.72;10386999;28;20049;-62
2022/12/24 02:20:06;;;;;;;13.85;3.00;;;;;;;9.28;60.67;99240.59;10385704;28;20041;-61
2022/12/24 02:25:19;;;;;;;16.30;3.22;;;;;;;9.24;60.83;99246.13;10385188;28;20520;-61
2022/12/24 02:30:25;;;;;;;14.77;3.25;;;;;;;9.33;60.91;99248.13;10386255;28;20056;-62
2022/12/24 02:35:34;;;;;;;19.92;3.00;;;;;;;9.33;61.03;99262.00;10385442;28;20107;-62
2022/12/24 02:40:58;;;;;;;15.88;3.17;;;;;;;9.38;61.36;99265.13;10383344;28;20064;-61
2022/12/24 02:46:06;;;;;;;16.05;3.42;;;;;;;9.48;61.04;99268.81;10384784;28;20073;-61
2022/12/24 02:51:09;;;;;;;15.00;2.72;;;;;;;9.43;61.46;99270.06;10385700;28;20049;-62
2022/12/24 02:56:35;;;;;;;14.65;3.50;;;;;;;9.32;61.77;99299.47;10384551;28;20099;-62
2022/12/24 03:01:53;;;;;;;18.92;2.90;;;;;;;9.36;61.78;99305.34;10377541;28;20409;-63
2022/12/24 03:07:14;;;;;;;18.73;3.58;;;;;;;9.36;61.68;99295.72;10389204;28;20049;-62
2022/12/24 03:12:23;;;;;;;21.55;3.40;;;;;;;9.45;61.91;99299.50;10386297;28;20384;-62
2022/12/24 03:17:25;;;;;;;23.42;4.05;;;;;;;9.45;61.74;99300.34;10385040;28;20046;-62
2022/12/24 03:22:31;;;;;;;18.02;3.20;;;;;;;9.41;61.96;99311.94;10382972;28;20053;-62
2022/12/24 03:27:34;;;;;;;16.73;3.72;;;;;;;9.49;61.71;99312.28;10387304;28;20053;-62
2022/12/24 03:32:35;;;;;;;18.05;3.38;;;;;;;9.48;61.64;99328.84;10389228;28;20111;-63
2022/12/24 03:37:37;;;;;;;20.65;3.90;;;;;;;9.57;61.29;99330.88;10387251;28;20045;-63
2022/12/24 03:42:39;;;;;;;15.20;3.78;;;;;;;9.65;61.19;99325.16;10388615;28;20049;-62
2022/12/24 03:47:40;;;;;;;18.13;3.25;;;;;;;9.56;61.43;99323.16;10385696;28;20576;-63
2022/12/24 03:52:42;;;;;;;15.15;3.65;;;;;;;9.51;61.68;99335.66;10385133;28;20493;-61
2022/12/24 03:57:44;;;;;;;16.52;3.38;;;;;;;9.50;61.81;99336.59;10386520;28;20057;-61
2022/12/24 04:02:46;;;;;;;14.93;3.65;;;;;;;9.46;61.93;99356.00;10368627;28;20064;-61
2022/12/24 04:07:48;;;;;;;14.05;2.70;;;;;;;9.50;61.97;99347.06;10377267;28;20061;-61
2022/12/24 04:12:50;;;;;;;16.30;3.47;;;;;;;9.38;62.25;99353.88;10378956;28;20057;-62
2022/12/24 04:17:52;;;;;;;17.15;3.38;;;;;;;9.33;62.68;99355.94;10374071;28;20049;-62
2022/12/24 04:22:54;;;;;;;13.02;2.90;;;;;;;9.25;63.36;99358.22;10390171;28;20064;-63
2022/12/24 04:27:55;;;;;;;12.80;2.85;;;;;;;9.32;63.43;99375.13;10386333;28;20052;-63
2022/12/24 04:32:57;;;;;;;10.70;2.22;;;;;;;9.44;63.35;99374.34;10389449;28;20502;-62
2022/12/24 04:37:59;;;;;;;14.48;2.83;;;;;;;9.54;63.14;99370.22;10386680;28;20048;-63
2022/12/24 04:43:01;;;;;;;13.38;3.20;;;;;;;9.47;63.29;99381.16;10385355;28;20393;-62
2022/12/24 04:48:03;;;;;;;19.05;2.92;;;;;;;9.28;63.73;99381.50;10384227;28;20422;-62
2022/12/24 04:53:04;;;;;;;13.88;2.72;;;;;;;9.17;64.11;99397.00;10388080;28;20533;-62
2022/12/24 04:58:06;;;;;;;15.60;3.22;;;;;;;8.97;64.69;99383.50;10385235;28;20057;-62
2022/12/24 05:03:08;;;;;;;19.48;3.63;;;;;;;9.00;64.81;99378.94;10389479;28;20056;-62
2022/12/24 05:08:09;;;;;;;18.50;3.38;;;;;;;8.96;64.79;99385.28;10383943;28;20061;-62
2022/12/24 05:13:11;;;;;;;18.17;3.33;;;;;;;9.01;64.73;99393.66;10385369;28;20052;-62
2022/12/24 05:18:13;;;;;;;19.05;3.75;;;;;;;9.17;64.80;99393.53;10380859;28;20461;-62
2022/12/24 05:28:37;;;;;;;17.60;3.45;;;;;;;9.34;64.58;99401.16;10383799;28;20045;-62
2022/12/24 05:33:38;;;;;;;15.30;3.05;;;;;;;9.23;64.85;99401.81;10386148;28;20390;-62
2022/12/24 05:38:40;;;;;;;22.00;3.53;;;;;;;9.22;65.02;99407.97;10382815;28;20311;-62
2022/12/24 05:43:42;;;;;;;18.13;3.67;;;;;;;9.39;65.06;99420.81;10386376;28;20045;-63
2022/12/24 05:48:45;;;;;;;20.55;3.58;;;;;;;9.43;64.87;99431.88;10383717;28;20444;-62
2022/12/24 05:53:48;;;;;;;22.17;4.05;;;;;;;9.44;65.21;99439.59;10386145;28;20060;-63
2022/12/24 05:58:52;;;;;;;20.48;3.85;;;;;;;9.42;65.21;99445.88;10385243;28;20057;-63
2022/12/24 06:03:55;;;;;;;19.67;3.75;;;;;;;9.33;65.95;99447.28;10385480;28;20446;-62
2022/12/24 06:08:57;;;;;;;20.90;3.97;;;;;;;9.32;66.19;99461.25;10385660;28;20045;-62
2022/12/24 06:13:59;;;;;;;26.67;4.50;;;;;;;9.29;66.53;99465.84;10382097;28;20045;-62
2022/12/24 06:19:01;;;;;;;20.27;4.10;;;;;;;9.31;66.91;99469.19;10381491;28;20466;-62
2022/12/24 06:24:03;;;;;;;23.67;4.85;;;;;;;9.39;66.90;99478.22;10383395;28;20081;-62
2022/12/24 06:29:05;;;;;;;25.30;4.65;;;;;;;9.47;66.95;99481.19;10383509;28;20053;-62
2022/12/24 06:34:09;;;;;;;22.55;3.92;;;;;;;9.59;66.71;99479.56;10383749;28;20057;-61
2022/12/24 06:39:11;;;;;;;26.20;3.83;;;;;;;9.69;66.96;99479.88;10385274;28;20055;-62
2022/12/24 06:44:12;;;;;;;17.58;3.90;;;;;;;9.71;66.88;99478.03;10384576;28;20482;-62
2022/12/24 06:49:14;;;;;;;24.85;4.10;;;;;;;9.67;67.06;99482.56;10385407;28;20520;-62
2022/12/24 06:54:16;;;;;;;26.13;4.05;;;;;;;9.57;67.24;99484.91;10383580;28;20233;-62
2022/12/24 06:59:17;;;;;;;30.05;4.07;;;;;;;9.53;67.19;99487.78;10383970;28;20061;-62
2022/12/24 07:04:19;;;;;;;24.00;4.47;;;;;;;9.41;67.32;99494.63;10383549;28;20045;-62
2022/12/24 07:09:21;;;;;;;22.83;4.03;;;;;;;9.27;67.79;99497.25;10384769;28;20050;-62
2022/12/24 07:14:22;;;;;;;24.20;4.55;;;;;;;9.20;67.74;99500.34;10385090;28;20045;-62
2022/12/24 07:19:24;;;;;;;24.02;4.35;;;;;;;9.23;67.70;99505.34;10383014;28;20045;-62
2022/12/24 07:24:26;;;;;;;29.27;4.57;;;;;;;9.12;67.99;99513.81;10384355;28;20053;-62
2022/12/24 07:29:27;;;;;;;19.20;4.05;;;;;;;9.16;67.79;99506.63;10384568;28;20566;-62
2022/12/24 07:34:29;;;;;;;25.38;4.10;;;;;;;9.10;67.85;99526.13;10381035;28;20049;-62
2022/12/24 07:39:31;;;;;;;25.55;4.75;;;;;;;9.14;67.84;99537.19;10381926;28;20041;-62
2022/12/24 07:44:33;;;;;;;23.83;4.28;;;;;;;9.14;67.88;99527.59;10384079;28;20053;-63
2022/12/24 07:49:35;;;;;;;25.35;4.57;;;;;;;9.23;67.63;99534.06;10383639;28;20292;-62
2022/12/24 07:54:36;;;;;;;21.15;4.15;;;;;;;9.35;67.52;99548.97;10387867;28;20584;-62
2022/12/24 07:59:38;;;;;;;19.75;3.80;;;;;;;9.38;67.19;99562.66;10391585;28;20409;-62
2022/12/24 08:04:40;;;;;;;25.70;4.55;;;;;;;9.37;67.19;99568.81;10383358;28;20049;-63
2022/12/24 08:09:43;;;;;;;28.55;4.63;;;;;;;9.43;67.11;99573.66;10388836;28;20038;-63
2022/12/24 08:14:45;;;;;;;18.25;3.67;;;;;;;9.42;67.00;99568.56;10385246;28;20575;-63
2022/12/24 08:19:46;;;;;;;22.73;4.00;;;;;;;9.47;66.82;99569.09;10387258;28;20132;-64
2022/12/24 08:24:48;;;;;;;17.40;3.72;;;;;;;9.48;66.50;99571.59;10386437;28;20489;-65
2022/12/24 08:29:50;;;;;;;23.42;9.82;;;;;;;9.60;66.47;99581.31;10386674;28;20077;-64
2022/12/24 08:34:52;;;;;;;16.70;3.70;;;;;;;9.57;66.64;99583.25;10381782;28;20053;-64
2022/12/24 08:39:53;;;;;;;16.90;3.70;;;;;;;9.59;66.60;99591.84;10388495;28;20061;-62
2022/12/24 08:44:55;;;;;;;18.52;4.05;;;;;;;9.65;66.30;99609.75;10385684;28;20056;-64
2022/12/24 08:49:57;;;;;;;19.98;3.95;;;;;;;9.71;66.11;99609.41;10387950;28;20054;-64
2022/12/24 08:54:58;;;;;;;15.73;3.78;;;;;;;9.87;65.71;99617.97;10382227;28;20073;-63
2022/12/24 09:00:00;;;;;;;18.92;4.22;;;;;;;9.89;65.56;99621.31;10387313;28;20754;-63
2022/12/24 09:05:02;;;;;;;16.45;4.90;;;;;;;9.94;65.55;99623.66;10383702;28;20133;-62
2022/12/24 09:10:04;;;;;;;18.92;4.85;;;;;;;10.12;65.25;99625.97;10385846;28;20045;-64
2022/12/24 09:15:07;;;;;;;18.58;4.53;;;;;;;10.21;65.18;99630.63;10386506;28;20049;-63
2022/12/24 09:20:09;;;;;;;18.85;5.07;;;;;;;10.20;65.03;99634.16;10384937;28;20160;-63
2022/12/24 09:25:11;;;;;;;19.15;4.82;;;;;;;10.20;65.08;99649.00;10383870;28;20410;-62
2022/12/24 09:30:13;;;;;;;22.10;8.30;;;;;;;10.34;64.71;99635.91;10382152;28;20045;-65
2022/12/24 09:35:15;;;;;;;16.77;5.50;;;;;;;10.50;64.06;99647.09;10384352;28;20438;-63
2022/12/24 09:40:38;;;;;;;13.07;4.07;;;;;;;10.48;63.56;99662.84;10384309;28;20050;-63
2022/12/24 09:46:05;;;;;;;16.13;4.03;;;;;;;10.81;62.75;99670.31;10377328;28;20054;-62
2022/12/24 09:51:25;;;;;;;13.23;3.80;;;;;;;10.69;62.71;99678.09;10381854;28;20057;-62
2022/12/24 09:56:38;;;;;;;22.27;4.00;;;;;;;10.70;63.06;99682.41;10383886;28;20058;-62
2022/12/24 10:01:40;;;;;;;15.00;3.33;;;;;;;10.65;63.17;99687.94;10385430;28;20881;-63
2022/12/24 10:06:41;;;;;;;15.10;3.30;;;;;;;10.64;63.15;99691.50;10382624;28;20092;-63
2022/12/24 10:11:52;;;;;;;17.95;3.50;;;;;;;10.51;63.35;99708.88;10384929;28;20501;-63
2022/12/24 10:16:54;;;;;;;;;;;;;;;10.30;64.04;99708.44;10374417;28;20056;-64
2022/12/24 10:21:55;;;;;;;;;;;;;;;10.18;63.93;99714.44;10384823;28;19931;-63
2022/12/24 10:27:04;;;;;;;15.70;3.38;;;;;;;10.36;63.69;99717.66;10381088;28;19925;-63
2022/12/24 10:32:08;;;;;;;16.70;4.18;;;;;;;10.52;63.59;99710.59;10383116;28;20053;-63
2022/12/24 10:37:21;;;;;;;15.02;3.70;;;;;;;10.86;62.77;99701.41;10381547;28;20047;-63
2022/12/24 10:42:30;;;;;;;16.98;3.50;;;;;;;11.00;62.06;99710.06;10373709;28;20049;-63
2022/12/24 10:47:39;;;;;;;20.35;3.72;;;;;;;11.22;61.93;99710.34;10380393;28;20101;-63
2022/12/24 10:52:44;;;;;;;15.63;3.58;;;;;;;11.20;61.54;99716.63;10382037;28;20052;-63
2022/12/24 10:58:04;;;;;;;18.20;3.47;;;;;;;11.29;60.97;99726.50;10381836;28;20084;-63
2022/12/24 11:03:11;;;;;;;17.92;3.65;;;;;;;11.17;60.98;99720.28;10383019;28;20105;-63
2022/12/24 11:08:19;;;;;;;16.25;3.30;;;;;;;11.45;61.09;99723.69;10381486;28;20049;-63
2022/12/24 11:13:35;;;;;;;18.90;3.83;;;;;;;11.44;60.00;99720.25;10378822;28;20053;-64
2022/12/24 11:18:47;;;;;;;15.70;3.45;;;;;;;11.60;60.59;99717.44;10377377;28;20354;-64
2022/12/24 11:24:12;;;;;;;15.77;4.13;;;;;;;12.04;59.29;99710.00;10374784;28;20057;-63
2022/12/24 11:29:25;;;;;;;16.50;3.78;;;;;;;12.29;58.69;99704.78;10381992;28;20060;-63
2022/12/24 11:34:29;;;;;;;21.65;4.50;;;;;;;12.21;58.47;99696.59;10382387;28;20480;-63
2022/12/24 11:39:39;;;;;;;18.45;3.90;;;;;;;11.96;58.03;99707.94;10384410;28;20049;-63
2022/12/24 11:44:48;;;;;;;19.93;3.83;;;;;;;12.02;57.99;99702.25;10382645;28;20120;-63
2022/12/24 11:49:49;;;;;;;17.83;3.50;;;;;;;11.95;59.27;99694.91;10384349;28;20371;-63
2022/12/24 11:55:07;;;;;;;14.45;3.50;;;;;;;11.98;58.58;99689.47;10376317;28;20053;-64
2022/12/24 12:00:16;;;;;;;17.80;3.70;;;;;;;12.11;58.95;99687.66;10379606;28;20664;-64
2022/12/24 12:05:23;;;;;;;15.77;4.10;;;;;;;12.03;58.81;99687.34;10377926;28;20046;-63
2022/12/24 12:10:29;;;;;;;18.58;3.55;;;;;;;11.72;58.70;99691.25;10377554;28;20164;-64
2022/12/24 12:15:39;;;;;;;14.63;3.38;;;;;;;11.80;58.63;99685.50;10381001;28;20631;-64
2022/12/24 12:20:47;;;;;;;15.63;3.72;;;;;;;11.93;58.75;99692.41;10379259;28;20755;-66
2022/12/24 12:26:16;;;;;;;17.70;4.65;;;;;;;11.92;57.83;99700.38;10380713;28;20045;-64
2022/12/24 12:31:31;;;;;;;15.93;3.40;;;;;;;12.18;57.31;99695.94;10380106;28;20061;-63
2022/12/24 12:36:45;;;;;;;16.70;3.30;;;;;;;12.16;57.28;99698.66;10378425;28;20041;-66
2022/12/24 12:42:04;;;;;;;12.85;3.20;;;;;;;11.97;57.60;99709.59;10384911;28;20679;-65
2022/12/24 12:47:34;;;;;;;20.58;3.95;;;;;;;12.18;57.17;99702.03;10388663;28;20365;-64
2022/12/24 12:53:03;;;;;;;17.80;3.63;;;;;;;12.19;57.02;99705.50;10386085;28;20405;-64
2022/12/24 12:58:18;;;;;;;15.77;3.50;;;;;;;12.14;57.23;99705.81;10388381;28;20099;-65
2022/12/24 13:03:34;;;;;;;16.45;3.85;;;;;;;12.10;57.11;99714.84;10383291;28;20450;-65
2022/12/24 13:08:47;;;;;;;18.13;3.58;;;;;;;12.06;57.62;99708.97;10384284;28;20121;-65
2022/12/24 13:14:16;;;;;;;16.15;3.30;;;;;;;11.82;57.48;99721.13;10381008;28;20060;-64
2022/12/24 13:19:21;;;;;;;17.88;3.45;;;;;;;11.83;57.81;99733.28;10388504;28;20042;-64
2022/12/24 13:24:26;;;;;;;14.30;3.47;;;;;;;11.84;58.65;99734.13;10385314;28;20045;-65
2022/12/24 13:29:40;;;;;;;17.20;3.67;;;;;;;11.75;58.23;99732.97;10388144;28;20148;-65
2022/12/24 13:34:47;;;;;;;13.02;3.08;;;;;;;11.80;58.20;99751.84;10387958;28;20059;-65
2022/12/24 13:40:01;;;;;;;16.58;3.58;;;;;;;11.82;57.76;99754.34;10387805;28;20505;-65
2022/12/24 13:45:28;;;;;;;17.00;3.08;;;;;;;11.60;57.99;99754.13;10389081;28;20052;-63
2022/12/24 13:50:51;;;;;;;13.85;3.35;;;;;;;11.62;57.82;99747.00;10385469;28;20053;-64
2022/12/24 13:55:55;;;;;;;16.88;3.95;;;;;;;11.50;58.32;99742.59;10386692;28;20052;-63
2022/12/24 14:01:01;;;;;;;14.52;3.42;;;;;;;11.55;58.15;99745.72;10385957;28;20429;-64
2022/12/24 14:06:19;;;;;;;16.30;3.50;;;;;;;11.40;58.07;99754.59;10382343;28;20376;-64
2022/12/24 14:11:24;;;;;;;17.33;3.85;;;;;;;11.36;58.55;99748.72;10384584;28;20045;-65
2022/12/24 14:16:40;;;;;;;18.77;3.92;;;;;;;11.31;58.38;99769.13;10386775;28;20078;-64
2022/12/24 14:21:54;;;;;;;16.02;3.45;;;;;;;11.39;58.28;99763.38;10388612;28;20142;-65
2022/12/24 14:27:06;;;;;;;19.23;3.75;;;;;;;11.29;59.13;99763.16;10387300;28;20148;-65
2022/12/24 14:32:13;;;;;;;18.38;3.50;;;;;;;11.18;59.32;99755.16;10387437;28;20409;-64
2022/12/24 14:37:16;;;;;;;19.92;3.83;;;;;;;11.26;59.42;99769.44;10387449;28;20049;-65
2022/12/24 14:42:32;;;;;;;19.33;4.10;;;;;;;11.25;59.23;99769.53;10387588;28;20520;-64
2022/12/24 14:47:44;;;;;;;16.95;3.60;;;;;;;11.18;59.21;99766.47;10386032;28;20057;-64
2022/12/24 14:53:14;;;;;;;21.67;3.88;;;;;;;11.16;58.49;99778.81;10387069;28;20053;-64
2022/12/24 14:58:25;;;;;;;24.10;4.38;;;;;;;11.19;59.05;99791.69;10368590;28;20417;-65
2022/12/24 15:03:30;;;;;;;23.27;4.43;;;;;;;11.16;59.20;99797.13;10386995;28;20414;-65
2022/12/24 15:08:52;;;;;;;17.20;3.78;;;;;;;10.98;59.25;99794.81;10386031;28;20088;-65
2022/12/24 15:13:57;;;;;;;22.30;3.58;;;;;;;10.97;59.65;99808.84;10386531;28;20409;-64
2022/12/24 15:19:32;;;;;;;21.23;4.03;;;;;;;10.74;59.78;99823.38;10385788;28;20124;-64
2022/12/24 15:24:42;;;;;;;19.92;3.90;;;;;;;10.60;60.24;99827.75;10385731;28;20387;-63
2022/12/24 15:29:46;;;;;;;17.43;4.10;;;;;;;10.49;60.59;99836.25;10385892;28;20053;-64
2022/12/24 15:34:53;;;;;;;24.00;4.20;;;;;;;10.34;61.21;99839.78;10384419;28;20054;-63
2022/12/24 15:40:08;;;;;;;16.27;3.92;;;;;;;10.20;61.67;99852.84;10385351;28;20053;-63
2022/12/24 15:45:20;;;;;;;23.85;3.90;;;;;;;10.19;61.93;99861.63;10385249;28;20045;-63
2022/12/24 15:50:32;;;;;;;26.33;4.80;;;;;;;10.24;61.91;99870.03;10368714;28;20041;-63
2022/12/24 15:55:38;;;;;;;20.20;4.20;;;;;;;10.28;61.87;99869.75;10385563;28;20057;-63
2022/12/24 16:00:41;;;;;;;18.27;4.03;;;;;;;10.39;61.70;99879.59;10385002;28;20454;-64
2022/12/24 16:05:43;;;;;;;20.48;3.90;;;;;;;10.39;61.87;99869.13;10384957;28;20046;-63
2022/12/24 16:11:08;;;;;;;17.45;3.97;;;;;;;10.39;61.97;99864.75;10384947;28;20423;-64
2022/12/24 16:16:12;;;;;;;19.65;4.45;;;;;;;10.36;61.87;99875.38;10385655;28;20048;-65
2022/12/24 16:21:28;;;;;;;21.73;4.60;;;;;;;10.23;62.10;99870.97;10393156;28;20068;-65
2022/12/24 16:26:30;;;;;;;20.75;4.38;;;;;;;10.16;62.17;99867.88;10393640;28;20493;-64
2022/12/24 16:31:53;;;;;;;22.25;3.78;;;;;;;10.07;62.64;99870.19;10392443;28;20045;-64
2022/12/24 16:36:55;;;;;;;15.63;3.78;;;;;;;10.15;62.85;99875.81;10393069;28;20089;-65
2022/12/24 16:47:30;;;;;;;18.63;4.38;;;;;;;10.06;62.94;99886.78;10391011;28;20049;-65
2022/12/24 16:52:42;;;;;;;17.48;4.05;;;;;;;9.93;63.03;99883.22;10389995;28;20053;-64
2022/12/24 16:57:44;;;;;;;18.60;4.53;;;;;;;9.94;62.99;99877.91;10388289;28;20053;-65
2022/12/24 17:02:47;;;;;;;18.10;4.32;;;;;;;9.89;63.34;99866.03;10388996;28;20049;-64
2022/12/24 17:07:51;;;;;;;20.95;3.95;;;;;;;9.82;63.41;99872.53;10382372;28;20418;-64
2022/12/24 17:12:54;;;;;;;22.00;4.15;;;;;;;9.64;63.64;99877.88;10382418;28;20051;-65
2022/12/24 17:17:56;;;;;;;21.80;4.53;;;;;;;9.42;63.88;99893.03;10388101;28;20524;-63
2022/12/24 17:22:58;;;;;;;15.98;3.83;;;;;;;9.24;64.31;99888.81;10386449;28;20057;-63
2022/12/24 17:28:03;;;;;;;25.92;4.20;;;;;;;9.13;64.62;99888.59;10389908;28;20187;-63
2022/12/24 17:33:04;;;;;;;24.85;4.55;;;;;;;8.93;65.07;99894.03;10388452;28;20077;-63
2022/12/24 17:38:14;;;;;;;16.37;4.50;;;;;;;8.80;65.34;99908.63;10383914;28;20046;-64
2022/12/24 17:43:16;;;;;;;21.98;4.95;;;;;;;8.69;65.49;99918.78;10387557;28;20053;-63
2022/12/24 17:48:18;;;;;;;23.00;5.35;;;;;;;8.49;65.92;99922.44;10385278;28;20065;-63
2022/12/24 17:53:20;;;;;;;23.38;5.43;;;;;;;8.36;66.43;99910.97;10387477;28;20072;-62
2022/12/24 17:58:21;;;;;;;22.90;4.50;;;;;;;8.31;66.42;99909.50;10388303;28;20057;-63
2022/12/24 18:03:23;;;;;;;24.35;6.50;;;;;;;8.30;66.99;99913.88;10386545;28;20049;-62
2022/12/24 18:08:25;;;;;;;20.63;6.30;;;;;;;8.44;67.15;99908.81;10386181;28;20141;-62
2022/12/24 18:13:26;;;;;;;18.27;4.32;;;;;;;8.49;66.93;99904.19;10386719;28;20050;-62
2022/12/24 18:18:28;;;;;;;17.05;3.50;;;;;;;8.49;66.99;99909.41;10379760;28;20049;-63
2022/12/24 18:23:30;;;;;;;18.92;3.97;;;;;;;8.49;67.31;99912.00;10385911;28;20049;-63
2022/12/24 18:28:31;;;;;;;19.20;4.22;;;;;;;8.55;67.17;99903.88;10386838;28;20132;-64
2022/12/24 18:33:34;;;;;;;16.75;5.22;;;;;;;8.46;66.84;99911.31;10386185;28;20049;-64
2022/12/24 18:38:36;;;;;;;17.63;4.47;;;;;;;8.41;67.52;99926.34;10386068;28;20072;-64
2022/12/24 18:43:38;;;;;;;22.38;4.43;;;;;;;8.55;67.37;99944.72;10386700;28;20051;-64
2022/12/24 18:48:40;;;;;;;15.98;4.55;;;;;;;8.47;67.14;99944.25;10383643;28;20128;-63
2022/12/24 18:53:42;;;;;;;17.17;4.43;;;;;;;8.47;67.10;99931.25;10384984;28;20414;-63
2022/12/24 18:58:44;;;;;;;16.15;4.40;;;;;;;8.43;67.20;99950.56;10386152;28;20138;-63
2022/12/24 19:03:46;;;;;;;17.27;4.35;;;;;;;8.51;67.10;99945.78;10382908;28;20045;-63
2022/12/24 19:08:48;;;;;;;18.17;4.30;;;;;;;8.62;67.10;99946.97;10382114;28;20380;-63
2022/12/24 19:14:02;;;;;;;18.17;4.63;;;;;;;8.67;67.20;99946.69;10383594;28;20557;-63
2022/12/24 19:19:05;;;;;;;15.45;3.90;;;;;;;8.75;67.26;99957.59;10384153;28;20048;-63
2022/12/24 19:24:09;;;;;;;16.50;3.60;;;;;;;8.77;67.37;99956.56;10381237;28;20320;-61
2022/12/24 19:29:11;;;;;;;14.60;4.20;;;;;;;8.80;67.21;99956.44;10385078;28;20073;-61
2022/12/24 19:34:12;;;;;;;19.48;4.47;;;;;;;8.70;67.17;99938.72;10383593;28;20040;-62
2022/12/24 19:39:15;;;;;;;17.65;4.60;;;;;;;8.59;67.28;99934.06;10383594;28;20076;-63
2022/12/24 19:44:16;;;;;;;22.70;5.13;;;;;;;8.49;67.19;99932.84;10382130;28;20320;-61
2022/12/24 19:49:18;;;;;;;21.77;4.63;;;;;;;8.51;67.33;99956.22;10382503;28;20524;-61
2022/12/24 19:54:20;;;;;;;15.93;4.18;;;;;;;8.52;67.57;99957.94;10383993;28;20049;-61
2022/12/24 19:59:21;;;;;;;15.32;4.18;;;;;;;8.67;67.28;99957.13;10382956;28;20057;-62
2022/12/24 20:04:23;;;;;;;14.77;3.50;;;;;;;8.71;67.39;99953.44;10381732;28;20089;-62
2022/12/24 20:09:24;;;;;;;17.17;4.10;;;;;;;8.79;66.86;99972.16;10383204;28;20057;-63
2022/12/24 20:14:27;;;;;;;16.17;4.10;;;;;;;8.73;67.00;99968.09;10378998;28;20193;-62
2022/12/24 20:19:29;;;;;;;20.50;4.25;;;;;;;8.80;66.85;99959.03;10382212;28;20140;-62
2022/12/24 20:24:30;;;;;;;20.05;4.90;;;;;;;8.77;66.76;99968.78;10379904;28;20057;-62
2022/12/24 20:29:32;;;;;;;16.67;4.53;;;;;;;8.75;66.71;99983.69;10381936;28;20062;-62
2022/12/24 20:34:35;;;;;;;17.65;4.20;;;;;;;8.82;66.70;99972.84;10382014;28;20056;-62
2022/12/24 20:39:37;;;;;;;20.52;4.50;;;;;;;8.87;66.57;99990.00;10383392;28;20255;-62
2022/12/24 20:44:38;;;;;;;20.30;4.70;;;;;;;8.89;66.41;100002.06;10380678;28;20547;-62
2022/12/24 20:49:40;;;;;;;19.63;4.47;;;;;;;8.81;66.47;99992.00;10382297;28;20056;-62
2022/12/24 20:54:42;;;;;;;21.70;4.70;;;;;;;8.78;66.56;99997.38;10380705;28;20699;-62
2022/12/24 20:59:43;;;;;;;21.42;4.57;;;;;;;8.68;66.56;99987.50;10380165;28;20150;-62
2022/12/24 21:04:45;;;;;;;19.23;4.85;;;;;;;8.59;66.91;99981.00;10380741;28;20045;-62
2022/12/24 21:09:46;;;;;;;23.33;5.18;;;;;;;8.62;66.81;99973.03;10388496;28;20529;-62
2022/12/24 21:14:48;;;;;;;17.45;4.75;;;;;;;8.69;66.79;99978.75;10389502;28;20056;-62
2022/12/24 21:19:50;;;;;;;21.95;4.80;;;;;;;8.66;66.69;99977.16;10387651;28;20323;-62
2022/12/24 21:24:52;;;;;;;25.58;5.75;;;;;;;8.63;66.78;99969.47;10386969;28;20060;-62
2022/12/24 21:29:53;;;;;;;27.73;11.30;;;;;;;8.55;66.71;99973.38;10387169;28;20056;-62
2022/12/24 21:34:55;;;;;;;27.05;11.43;;;;;;;8.49;67.00;99958.06;10387922;28;20486;-62
2022/12/24 21:39:57;;;;;;;27.73;10.52;;;;;;;8.51;66.79;99951.00;10387870;28;20147;-62
2022/12/24 21:44:58;;;;;;;32.95;12.93;;;;;;;8.28;67.00;99951.34;10386915;28;20049;-62
2022/12/24 21:55:21;;;;;;;22.10;7.37;;;;;;;8.05;67.46;99962.88;10385061;28;20053;-62
2022/12/24 22:00:25;;;;;;;31.58;10.25;;;;;;;8.15;67.47;99973.69;10387098;28;20056;-62
2022/12/24 22:05:28;;;;;;;25.58;9.05;;;;;;;8.29;67.05;99984.28;10386252;28;20525;-62
2022/12/24 22:15:52;;;;;;;29.55;10.65;;;;;;;8.30;67.12;99988.59;10383678;28;20048;-62
2022/12/24 22:20:55;;;;;;;27.13;10.65;;;;;;;8.28;67.14;99986.03;10385723;28;20428;-62
2022/12/24 22:25:56;;;;;;;26.15;11.35;;;;;;;8.40;67.02;99990.66;10386384;28;20761;-63
2022/12/24 22:30:58;;;;;;;24.55;10.35;;;;;;;8.47;66.96;99980.75;10384519;28;20054;-63
2022/12/24 22:36:03;;;;;;;27.83;10.80;;;;;;;8.50;66.81;99991.03;10384867;28;20103;-62
2022/12/24 22:41:10;;;;;;;29.13;10.73;;;;;;;8.55;66.74;99996.84;10385816;28;20049;-62
2022/12/24 22:46:13;;;;;;;25.85;9.75;;;;;;;8.60;66.51;99985.28;10385238;28;20409;-62
2022/12/24 22:51:17;;;;;;;25.98;11.02;;;;;;;8.64;66.59;99989.44;10383057;28;20053;-61
2022/12/24 22:56:21;;;;;;;29.00;11.20;;;;;;;8.66;66.37;99997.16;10376623;28;20053;-61
2022/12/24 23:01:36;;;;;;;23.25;9.77;;;;;;;8.62;66.33;99991.28;10385142;28;20062;-61
2022/12/24 23:06:40;;;;;;;27.98;12.00;;;;;;;8.65;66.27;99985.03;10383710;28;20045;-61
2022/12/24 23:11:43;;;;;;;29.27;11.50;;;;;;;8.59;66.38;99982.75;10381787;28;20044;-61
2022/12/24 23:16:45;;;;;;;32.90;12.38;;;;;;;8.53;66.45;99975.22;10382885;28;20075;-61
2022/12/24 23:21:47;;;;;;;34.05;12.45;;;;;;;8.38;66.49;99961.25;10383677;28;20041;-61
2022/12/24 23:26:49;;;;;;;30.58;12.15;;;;;;;8.21;66.90;99974.25;10382790;28;20060;-61
2022/12/24 23:31:50;;;;;;;28.05;11.05;;;;;;;8.16;66.99;99976.22;10382474;28;20050;-61
2022/12/24 23:36:52;;;;;;;31.23;11.57;;;;;;;8.29;66.99;99977.31;10382470;28;20053;-62
2022/12/24 23:41:53;;;;;;;28.70;10.85;;;;;;;8.37;67.09;99975.16;10381785;28;20057;-61
2022/12/24 23:46:55;;;;;;;27.88;10.90;;;;;;;8.41;66.59;99976.72;10379335;28;20425;-61
2022/12/24 23:51:57;;;;;;;26.33;11.07;;;;;;;8.44;66.74;99965.28;10382194;28;20045;-62
2022/12/24 23:56:58;;;;;;;27.38;10.82;;;;;;;8.46;66.73;99960.84;10381898;28;20056;-61
